sensor_id;sensor_type;location;lat;lon;timestamp;pressure;altitude;pressure_sealevel;temperature;humidity
27425;BME280;15244;49.088;11.886;2023-10-19T00:03:52;94474.09;;;11.45;51.03
27425;BME280;15244;49.088;11.886;2023-10-19T00:08:57;94464.38;;;11.44;50.75
27425;BME280;15244;49.088;11.886;2023-10-19T00:14:01;94457.34;;;11.43;51.16
27425;BME280;15244;49.088;11.886;2023-10-19T00:19:04;94442.94;;;11.43;51.24
27425;BME280;15244;49.088;11.886;2023-10-19T00:24:06;94438.34;;;11.40;51.45
27425;BME280;15244;49.088;11.886;2023-10-19T00:29:08;94454.25;;;11.41;51.21
27425;BME280;15244;49.088;11.886;2023-10-19T00:34:28;94436.78;;;11.39;51.97
27425;BME280;15244;49.088;11.886;2023-10-19T00:39:34;94434.03;;;11.39;51.55
27425;BME280;15244;49.088;11.886;2023-10-19T00:44:48;94428.19;;;11.40;51.71
27425;BME280;15244;49.088;11.886;2023-10-19T00:49:52;94424.25;;;11.41;51.82
27425;BME280;15244;49.088;11.886;2023-10-19T00:54:57;94419.91;;;11.44;52.14
27425;BME280;15244;49.088;11.886;2023-10-19T01:00:01;94400.41;;;11.45;52.33
27425;BME280;15244;49.088;11.886;2023-10-19T01:05:23;94396.47;;;11.46;52.13
27425;BME280;15244;49.088;11.886;2023-10-19T01:10:25;94397.59;;;11.49;52.25
27425;BME280;15244;49.088;11.886;2023-10-19T01:15:30;94399.13;;;11.50;52.18
27425;BME280;15244;49.088;11.886;2023-10-19T01:20:32;94391.72;;;11.50;52.42
27425;BME280;15244;49.088;11.886;2023-10-19T01:26:02;94384.72;;;11.49;52.45
27425;BME280;15244;49.088;11.886;2023-10-19T01:31:20;94371.09;;;11.49;52.60
27425;BME280;15244;49.088;11.886;2023-10-19T01:36:32;94360.56;;;11.48;52.49
27425;BME280;15244;49.088;11.886;2023-10-19T01:41:46;94366.44;;;11.46;52.80
27425;BME280;15244;49.088;11.886;2023-10-19T01:46:48;94353.25;;;11.45;52.75
27425;BME280;15244;49.088;11.886;2023-10-19T01:51:50;94352.88;;;11.43;52.62
27425;BME280;15244;49.088;11.886;2023-10-19T01:56:52;94357.59;;;11.42;52.84
27425;BME280;15244;49.088;11.886;2023-10-19T02:01:56;94357.59;;;11.42;52.95
27425;BME280;15244;49.088;11.886;2023-10-19T02:06:59;94360.31;;;11.42;52.73
27425;BME280;15244;49.088;11.886;2023-10-19T02:12:01;94356.38;;;11.43;52.71
27425;BME280;15244;49.088;11.886;2023-10-19T02:17:06;94353.25;;;11.45;52.79
27425;BME280;15244;49.088;11.886;2023-10-19T02:22:07;94335.66;;;11.46;53.51
27425;BME280;15244;49.088;11.886;2023-10-19T02:27:10;94335.25;;;11.47;53.26
27425;BME280;15244;49.088;11.886;2023-10-19T02:32:27;94324.34;;;11.47;53.49
27425;BME280;15244;49.088;11.886;2023-10-19T02:37:30;94327.06;;;11.47;53.06
27425;BME280;15244;49.088;11.886;2023-10-19T02:42:31;94313.78;;;11.49;53.11
27425;BME280;15244;49.088;11.886;2023-10-19T02:47:33;94309.84;;;11.50;52.67
27425;BME280;15244;49.088;11.886;2023-10-19T02:52:36;94315.72;;;11.49;53.06
27425;BME280;15244;49.088;11.886;2023-10-19T02:57:38;94314.09;;;11.52;53.03
27425;BME280;15244;49.088;11.886;2023-10-19T03:02:40;94308.63;;;11.52;52.88
27425;BME280;15244;49.088;11.886;2023-10-19T03:07:42;94298.06;;;11.54;53.18
27425;BME280;15244;49.088;11.886;2023-10-19T03:12:46;94294.56;;;11.53;52.94
27425;BME280;15244;49.088;11.886;2023-10-19T03:17:48;94293.06;;;11.52;53.14
27425;BME280;15244;49.088;11.886;2023-10-19T03:22:50;94278.53;;;11.55;53.11
27425;BME280;15244;49.088;11.886;2023-10-19T03:27:54;94257.81;;;11.58;53.17
27425;BME280;15244;49.088;11.886;2023-10-19T03:32:56;94270.34;;;11.55;53.13
27425;BME280;15244;49.088;11.886;2023-10-19T03:38:01;94264.91;;;11.55;53.25
27425;BME280;15244;49.088;11.886;2023-10-19T03:43:09;94246.91;;;11.58;53.29
27425;BME280;15244;49.088;11.886;2023-10-19T03:48:19;94243.41;;;11.57;52.97
27425;BME280;15244;49.088;11.886;2023-10-19T03:53:36;94240.34;;;11.55;53.03
27425;BME280;15244;49.088;11.886;2023-10-19T03:58:41;94245.34;;;11.57;53.05
27425;BME280;15244;49.088;11.886;2023-10-19T04:03:45;94231.28;;;11.58;52.87
27425;BME280;15244;49.088;11.886;2023-10-19T04:08:47;94229.78;;;11.57;52.87
27425;BME280;15244;49.088;11.886;2023-10-19T04:13:52;94210.97;;;11.59;53.03
27425;BME280;15244;49.088;11.886;2023-10-19T04:18:57;94184.47;;;11.60;52.91
27425;BME280;15244;49.088;11.886;2023-10-19T04:23:59;94163.81;;;11.59;52.96
27425;BME280;15244;49.088;11.886;2023-10-19T04:29:01;94155.28;;;11.57;53.09
27425;BME280;15244;49.088;11.886;2023-10-19T04:34:10;94156.06;;;11.57;52.83
27425;BME280;15244;49.088;11.886;2023-10-19T04:39:12;94190.75;;;11.57;53.21
27425;BME280;15244;49.088;11.886;2023-10-19T04:44:15;94209.03;;;11.60;53.20
27425;BME280;15244;49.088;11.886;2023-10-19T04:49:17;94224.97;;;11.61;52.64
27425;BME280;15244;49.088;11.886;2023-10-19T04:54:18;94257.81;;;11.58;52.69
27425;BME280;15244;49.088;11.886;2023-10-19T04:59:20;94259.25;;;11.46;52.86
27425;BME280;15244;49.088;11.886;2023-10-19T05:04:22;94262.56;;;11.37;53.15
27425;BME280;15244;49.088;11.886;2023-10-19T05:09:23;94242.88;;;11.30;53.57
27425;BME280;15244;49.088;11.886;2023-10-19T05:14:25;94254.09;;;11.32;53.13
27425;BME280;15244;49.088;11.886;2023-10-19T05:19:27;94255.66;;;11.33;53.49
27425;BME280;15244;49.088;11.886;2023-10-19T05:24:28;94252.94;;;11.33;53.90
27425;BME280;15244;49.088;11.886;2023-10-19T05:29:32;94221.66;;;11.37;53.89
27425;BME280;15244;49.088;11.886;2023-10-19T05:34:34;94185.66;;;11.42;53.90
27425;BME280;15244;49.088;11.886;2023-10-19T05:39:37;94189.50;;;11.45;54.16
27425;BME280;15244;49.088;11.886;2023-10-19T05:44:40;94175.75;;;11.48;54.24
27425;BME280;15244;49.088;11.886;2023-10-19T05:49:42;94172.19;;;11.52;54.24
27425;BME280;15244;49.088;11.886;2023-10-19T05:54:44;94191.63;;;11.54;54.46
27425;BME280;15244;49.088;11.886;2023-10-19T05:59:46;94195.47;;;11.56;54.08
27425;BME280;15244;49.088;11.886;2023-10-19T06:04:47;94202.03;;;11.59;53.94
27425;BME280;15244;49.088;11.886;2023-10-19T06:09:49;94204.75;;;11.59;53.66
27425;BME280;15244;49.088;11.886;2023-10-19T06:14:50;94220.28;;;11.62;54.02
27425;BME280;15244;49.088;11.886;2023-10-19T06:19:52;94206.63;;;11.62;53.88
27425;BME280;15244;49.088;11.886;2023-10-19T06:24:54;94192.97;;;11.62;53.66
27425;BME280;15244;49.088;11.886;2023-10-19T06:29:55;94180.44;;;11.64;53.54
27425;BME280;15244;49.088;11.886;2023-10-19T06:34:57;94190.59;;;11.64;53.67
27425;BME280;15244;49.088;11.886;2023-10-19T06:39:59;94192.47;;;11.67;53.47
27425;BME280;15244;49.088;11.886;2023-10-19T06:45:01;94185.06;;;11.67;53.56
27425;BME280;15244;49.088;11.886;2023-10-19T06:50:07;94177.88;;;11.74;53.53
27425;BME280;15244;49.088;11.886;2023-10-19T06:55:11;94186.75;;;11.78;53.79
27425;BME280;15244;49.088;11.886;2023-10-19T07:00:23;94211.13;;;11.85;53.56
27425;BME280;15244;49.088;11.886;2023-10-19T07:05:27;94197.44;;;11.88;53.73
27425;BME280;15244;49.088;11.886;2023-10-19T07:10:32;94184.47;;;11.92;53.97
27425;BME280;15244;49.088;11.886;2023-10-19T07:15:35;94181.97;;;11.98;53.94
27425;BME280;15244;49.088;11.886;2023-10-19T07:20:37;94176.34;;;12.05;54.23
27425;BME280;15244;49.088;11.886;2023-10-19T07:25:40;94182.03;;;12.11;53.84
27425;BME280;15244;49.088;11.886;2023-10-19T07:30:45;94183.47;;;12.16;53.89
27425;BME280;15244;49.088;11.886;2023-10-19T07:35:49;94191.47;;;12.23;53.49
27425;BME280;15244;49.088;11.886;2023-10-19T07:40:57;94182.31;;;12.29;53.84
27425;BME280;15244;49.088;11.886;2023-10-19T07:45:58;94186.84;;;12.36;53.83
27425;BME280;15244;49.088;11.886;2023-10-19T07:51:02;94184.34;;;12.42;53.74
27425;BME280;15244;49.088;11.886;2023-10-19T07:56:05;94181.81;;;12.47;53.54
27425;BME280;15244;49.088;11.886;2023-10-19T08:01:06;94174.31;;;12.51;53.54
27425;BME280;15244;49.088;11.886;2023-10-19T08:06:08;94181.22;;;12.56;53.39
27425;BME280;15244;49.088;11.886;2023-10-19T08:11:11;94178.69;;;12.62;53.56
27425;BME280;15244;49.088;11.886;2023-10-19T08:16:13;94182.88;;;12.66;53.46
27425;BME280;15244;49.088;11.886;2023-10-19T08:21:15;94184.94;;;12.75;53.56
27425;BME280;15244;49.088;11.886;2023-10-19T08:26:17;94182.44;;;12.80;53.71
27425;BME280;15244;49.088;11.886;2023-10-19T08:31:18;94182.66;;;12.86;53.32
27425;BME280;15244;49.088;11.886;2023-10-19T08:36:21;94171.97;;;12.92;53.58
27425;BME280;15244;49.088;11.886;2023-10-19T08:41:22;94159.72;;;12.96;53.58
27425;BME280;15244;49.088;11.886;2023-10-19T08:46:24;94165.28;;;13.06;53.64
27425;BME280;15244;49.088;11.886;2023-10-19T08:51:26;94152.91;;;13.14;53.51
27425;BME280;15244;49.088;11.886;2023-10-19T08:56:28;94145.25;;;13.21;53.61
27425;BME280;15244;49.088;11.886;2023-10-19T09:01:30;94147.81;;;13.29;53.61
27425;BME280;15244;49.088;11.886;2023-10-19T09:06:36;94163.91;;;13.39;53.58
27425;BME280;15244;49.088;11.886;2023-10-19T09:11:46;94163.03;;;13.42;53.55
27425;BME280;15244;49.088;11.886;2023-10-19T09:16:57;94171.00;;;13.50;53.48
27425;BME280;15244;49.088;11.886;2023-10-19T09:21:59;94162.78;;;13.62;53.73
27425;BME280;15244;49.088;11.886;2023-10-19T09:27:04;94160.13;;;13.72;53.71
27425;BME280;15244;49.088;11.886;2023-10-19T09:32:07;94161.72;;;13.82;53.54
27425;BME280;15244;49.088;11.886;2023-10-19T09:37:10;94161.06;;;13.91;53.39
27425;BME280;15244;49.088;11.886;2023-10-19T09:42:14;94159.63;;;13.99;53.37
27425;BME280;15244;49.088;11.886;2023-10-19T09:47:25;94157.53;;;14.03;53.49
27425;BME280;15244;49.088;11.886;2023-10-19T09:52:28;94160.56;;;14.05;53.09
27425;BME280;15244;49.088;11.886;2023-10-19T09:57:52;94158.63;;;14.05;53.09
27425;BME280;15244;49.088;11.886;2023-10-19T10:02:57;94167.91;;;14.08;53.23
27425;BME280;15244;49.088;11.886;2023-10-19T10:18:36;94153.56;;;14.04;53.11
27425;BME280;15244;49.088;11.886;2023-10-19T10:23:41;94147.66;;;14.05;53.32
27425;BME280;15244;49.088;11.886;2023-10-19T10:28:48;94131.84;;;14.09;53.36
27425;BME280;15244;49.088;11.886;2023-10-19T10:33:54;94126.25;;;14.13;53.02
27425;BME280;15244;49.088;11.886;2023-10-19T10:39:01;94119.09;;;14.16;53.54
27425;BME280;15244;49.088;11.886;2023-10-19T10:44:07;94110.44;;;14.17;53.70
27425;BME280;15244;49.088;11.886;2023-10-19T10:49:09;94111.50;;;14.20;53.65
27425;BME280;15244;49.088;11.886;2023-10-19T10:54:12;94090.66;;;14.22;53.91
27425;BME280;15244;49.088;11.886;2023-10-19T10:59:15;94083.19;;;14.23;54.24
27425;BME280;15244;49.088;11.886;2023-10-19T11:04:19;94070.13;;;14.27;54.23
27425;BME280;15244;49.088;11.886;2023-10-19T11:09:20;94061.00;;;14.30;54.37
27425;BME280;15244;49.088;11.886;2023-10-19T11:14:25;94056.19;;;14.34;54.47
27425;BME280;15244;49.088;11.886;2023-10-19T11:19:40;94042.03;;;14.36;54.48
27425;BME280;15244;49.088;11.886;2023-10-19T11:24:41;94048.28;;;14.36;54.44
27425;BME280;15244;49.088;11.886;2023-10-19T11:29:57;94048.13;;;14.40;54.32
27425;BME280;15244;49.088;11.886;2023-10-19T11:34:59;94041.75;;;14.43;54.43
27425;BME280;15244;49.088;11.886;2023-10-19T11:40:01;94025.94;;;14.47;54.77
27425;BME280;15244;49.088;11.886;2023-10-19T11:45:03;94021.84;;;14.51;54.80
27425;BME280;15244;49.088;11.886;2023-10-19T11:50:05;94013.81;;;14.57;55.00
27425;BME280;15244;49.088;11.886;2023-10-19T11:55:07;94017.97;;;14.62;54.98
27425;BME280;15244;49.088;11.886;2023-10-19T12:00:11;94013.41;;;14.68;54.98
27425;BME280;15244;49.088;11.886;2023-10-19T12:05:15;94012.81;;;14.73;54.83
27425;BME280;15244;49.088;11.886;2023-10-19T12:10:17;93996.53;;;14.79;54.81
27425;BME280;15244;49.088;11.886;2023-10-19T12:15:21;94002.78;;;14.88;54.86
27425;BME280;15244;49.088;11.886;2023-10-19T12:20:24;94005.56;;;14.98;54.72
27425;BME280;15244;49.088;11.886;2023-10-19T12:25:26;93999.78;;;15.05;54.84
27425;BME280;15244;49.088;11.886;2023-10-19T12:30:43;93995.53;;;15.13;54.79
27425;BME280;15244;49.088;11.886;2023-10-19T12:35:46;94000.88;;;15.16;54.50
27425;BME280;15244;49.088;11.886;2023-10-19T12:40:58;93996.44;;;15.19;54.47
27425;BME280;15244;49.088;11.886;2023-10-19T12:46:00;93987.00;;;15.20;54.40
27425;BME280;15244;49.088;11.886;2023-10-19T12:51:04;93983.34;;;15.23;54.07
27425;BME280;15244;49.088;11.886;2023-10-19T12:56:06;93986.84;;;15.24;54.19
27425;BME280;15244;49.088;11.886;2023-10-19T13:01:09;93977.22;;;15.19;54.05
27425;BME280;15244;49.088;11.886;2023-10-19T13:06:18;93976.47;;;15.18;54.17
27425;BME280;15244;49.088;11.886;2023-10-19T13:11:21;93972.97;;;15.18;54.12
27425;BME280;15244;49.088;11.886;2023-10-19T13:16:26;93979.97;;;15.19;54.45
27425;BME280;15244;49.088;11.886;2023-10-19T13:21:30;93962.31;;;15.20;54.65
27425;BME280;15244;49.088;11.886;2023-10-19T13:26:35;93964.56;;;15.22;54.78
27425;BME280;15244;49.088;11.886;2023-10-19T13:31:37;93973.88;;;15.24;54.68
27425;BME280;15244;49.088;11.886;2023-10-19T13:36:39;93961.69;;;15.25;54.82
27425;BME280;15244;49.088;11.886;2023-10-19T13:41:40;93950.72;;;15.25;54.79
27425;BME280;15244;49.088;11.886;2023-10-19T13:46:42;93940.50;;;15.26;55.02
27425;BME280;15244;49.088;11.886;2023-10-19T13:51:44;93943.56;;;15.28;55.09
27425;BME280;15244;49.088;11.886;2023-10-19T13:56:48;93932.88;;;15.30;55.23
27425;BME280;15244;49.088;11.886;2023-10-19T14:01:49;93928.47;;;15.32;55.33
27425;BME280;15244;49.088;11.886;2023-10-19T14:06:52;93941.56;;;15.37;55.38
27425;BME280;15244;49.088;11.886;2023-10-19T14:11:55;93957.28;;;15.37;55.40
27425;BME280;15244;49.088;11.886;2023-10-19T14:16:57;93950.56;;;15.38;55.24
27425;BME280;15244;49.088;11.886;2023-10-19T14:22:00;93939.59;;;15.38;55.05
27425;BME280;15244;49.088;11.886;2023-10-19T14:27:04;93949.50;;;15.35;55.41
27425;BME280;15244;49.088;11.886;2023-10-19T14:32:08;93947.50;;;15.36;55.21
27425;BME280;15244;49.088;11.886;2023-10-19T14:37:09;93938.97;;;15.34;55.13
27425;BME280;15244;49.088;11.886;2023-10-19T14:42:11;93918.22;;;15.33;55.12
27425;BME280;15244;49.088;11.886;2023-10-19T14:47:14;93927.69;;;15.32;55.14
27425;BME280;15244;49.088;11.886;2023-10-19T14:52:15;93932.88;;;15.30;55.09
27425;BME280;15244;49.088;11.886;2023-10-19T14:57:19;93932.88;;;15.30;55.18
27425;BME280;15244;49.088;11.886;2023-10-19T15:02:22;93936.06;;;15.28;54.84
27425;BME280;15244;49.088;11.886;2023-10-19T15:07:25;93940.06;;;15.27;54.93
27425;BME280;15244;49.088;11.886;2023-10-19T15:12:26;93929.22;;;15.24;54.77
27425;BME280;15244;49.088;11.886;2023-10-19T15:17:28;93928.44;;;15.23;54.95
27425;BME280;15244;49.088;11.886;2023-10-19T15:22:32;93912.91;;;15.20;54.95
27425;BME280;15244;49.088;11.886;2023-10-19T15:27:36;93914.56;;;15.17;54.95
27425;BME280;15244;49.088;11.886;2023-10-19T15:32:38;93911.06;;;15.17;54.99
27425;BME280;15244;49.088;11.886;2023-10-19T15:37:44;93915.03;;;15.16;54.95
27425;BME280;15244;49.088;11.886;2023-10-19T15:42:49;93895.97;;;15.12;55.08
27425;BME280;15244;49.088;11.886;2023-10-19T15:47:55;93895.22;;;15.12;55.07
27425;BME280;15244;49.088;11.886;2023-10-19T15:52:57;93888.66;;;15.09;55.02
27425;BME280;15244;49.088;11.886;2023-10-19T15:57:59;93872.63;;;15.08;55.02
27425;BME280;15244;49.088;11.886;2023-10-19T16:03:03;93865.31;;;15.05;55.26
27425;BME280;15244;49.088;11.886;2023-10-19T16:08:07;93872.00;;;15.04;55.29
27425;BME280;15244;49.088;11.886;2023-10-19T16:13:09;93882.72;;;15.02;55.34
27425;BME280;15244;49.088;11.886;2023-10-19T16:18:10;93870.19;;;15.01;55.35
27425;BME280;15244;49.088;11.886;2023-10-19T16:23:13;93873.84;;;14.98;55.40
27425;BME280;15244;49.088;11.886;2023-10-19T16:28:15;93861.81;;;14.95;55.58
27425;BME280;15244;49.088;11.886;2023-10-19T16:33:17;93866.22;;;14.92;55.38
27425;BME280;15244;49.088;11.886;2023-10-19T16:38:19;93860.44;;;14.90;55.60
27425;BME280;15244;49.088;11.886;2023-10-19T16:43:21;93862.41;;;14.90;55.66
27425;BME280;15244;49.088;11.886;2023-10-19T16:48:23;93857.84;;;14.87;55.61
27425;BME280;15244;49.088;11.886;2023-10-19T16:53:25;93842.59;;;14.86;55.67
27425;BME280;15244;49.088;11.886;2023-10-19T16:58:27;93847.31;;;14.85;55.71
27425;BME280;15244;49.088;11.886;2023-10-19T17:03:29;93849.75;;;14.83;55.94
27425;BME280;15244;49.088;11.886;2023-10-19T17:08:31;93841.25;;;14.81;55.80
27425;BME280;15244;49.088;11.886;2023-10-19T17:13:34;93847.47;;;14.82;55.72
27425;BME280;15244;49.088;11.886;2023-10-19T17:18:36;93850.69;;;14.80;55.80
27425;BME280;15244;49.088;11.886;2023-10-19T17:23:37;93838.94;;;14.80;56.08
27425;BME280;15244;49.088;11.886;2023-10-19T17:28:48;93853.09;;;14.78;56.04
27425;BME280;15244;49.088;11.886;2023-10-19T17:33:52;93845.34;;;14.77;56.12
27425;BME280;15244;49.088;11.886;2023-10-19T17:38:54;93826.16;;;14.77;56.00
27425;BME280;15244;49.088;11.886;2023-10-19T17:43:56;93814.38;;;14.76;56.00
27425;BME280;15244;49.088;11.886;2023-10-19T17:48:57;93807.41;;;14.75;56.03
27425;BME280;15244;49.088;11.886;2023-10-19T17:53:59;93801.59;;;14.73;56.22
27425;BME280;15244;49.088;11.886;2023-10-19T17:59:00;93791.38;;;14.73;56.21
27425;BME280;15244;49.088;11.886;2023-10-19T18:04:02;93785.63;;;14.71;56.24
27425;BME280;15244;49.088;11.886;2023-10-19T18:09:04;93782.41;;;14.73;56.28
27425;BME280;15244;49.088;11.886;2023-10-19T18:14:06;93773.72;;;14.74;55.96
27425;BME280;15244;49.088;11.886;2023-10-19T18:19:09;93783.63;;;14.72;56.58
27425;BME280;15244;49.088;11.886;2023-10-19T18:24:11;93769.59;;;14.70;56.10
27425;BME280;15244;49.088;11.886;2023-10-19T18:29:13;93781.50;;;14.67;56.04
27425;BME280;15244;49.088;11.886;2023-10-19T18:34:15;93778.44;;;14.65;56.16
27425;BME280;15244;49.088;11.886;2023-10-19T18:39:23;93765.97;;;14.64;55.99
27425;BME280;15244;49.088;11.886;2023-10-19T18:44:24;93761.69;;;14.63;56.09
27425;BME280;15244;49.088;11.886;2023-10-19T18:49:26;93748.44;;;14.61;55.93
27425;BME280;15244;49.088;11.886;2023-10-19T18:54:28;93769.31;;;14.59;55.91
27425;BME280;15244;49.088;11.886;2023-10-19T18:59:32;93761.97;;;14.56;55.90
27425;BME280;15244;49.088;11.886;2023-10-19T19:04:33;93758.94;;;14.54;55.91
27425;BME280;15244;49.088;11.886;2023-10-19T19:09:35;93756.63;;;14.52;55.88
27425;BME280;15244;49.088;11.886;2023-10-19T19:14:37;93733.19;;;14.51;55.74
27425;BME280;15244;49.088;11.886;2023-10-19T19:19:38;93727.06;;;14.47;55.70
27425;BME280;15244;49.088;11.886;2023-10-19T19:24:40;93726.75;;;14.45;55.94
27425;BME280;15244;49.088;11.886;2023-10-19T19:29:44;93705.31;;;14.43;55.84
27425;BME280;15244;49.088;11.886;2023-10-19T19:34:45;93692.50;;;14.40;55.79
27425;BME280;15244;49.088;11.886;2023-10-19T19:39:49;93677.72;;;14.38;55.66
27425;BME280;15244;49.088;11.886;2023-10-19T19:44:53;93667.69;;;14.35;55.64
27425;BME280;15244;49.088;11.886;2023-10-19T19:49:55;93672.84;;;14.32;55.75
27425;BME280;15244;49.088;11.886;2023-10-19T19:55:00;93699.19;;;14.30;55.51
27425;BME280;15244;49.088;11.886;2023-10-19T20:00:02;93731.63;;;14.31;55.66
27425;BME280;15244;49.088;11.886;2023-10-19T20:05:16;93754.00;;;14.30;55.64
27425;BME280;15244;49.088;11.886;2023-10-19T20:10:18;93730.44;;;14.23;55.93
27425;BME280;15244;49.088;11.886;2023-10-19T20:15:20;93729.19;;;14.24;55.79
27425;BME280;15244;49.088;11.886;2023-10-19T20:20:22;93720.97;;;14.24;55.62
27425;BME280;15244;49.088;11.886;2023-10-19T20:25:25;93713.97;;;14.23;55.90
27425;BME280;15244;49.088;11.886;2023-10-19T20:30:27;93712.44;;;14.22;55.73
27425;BME280;15244;49.088;11.886;2023-10-19T20:35:29;93712.91;;;14.21;55.68
27425;BME280;15244;49.088;11.886;2023-10-19T20:40:34;93691.00;;;14.21;55.72
27425;BME280;15244;49.088;11.886;2023-10-19T20:45:38;93684.44;;;14.18;55.55
27425;BME280;15244;49.088;11.886;2023-10-19T20:50:40;93684.13;;;14.16;55.58
27425;BME280;15244;49.088;11.886;2023-10-19T20:55:41;93673.63;;;14.15;55.59
27425;BME280;15244;49.088;11.886;2023-10-19T21:00:43;93658.84;;;14.12;55.58
27425;BME280;15244;49.088;11.886;2023-10-19T21:05:45;93658.09;;;14.12;55.48
27425;BME280;15244;49.088;11.886;2023-10-19T21:10:46;93643.63;;;14.11;55.79
27425;BME280;15244;49.088;11.886;2023-10-19T21:15:48;93642.09;;;14.10;55.83
27425;BME280;15244;49.088;11.886;2023-10-19T21:20:56;93620.19;;;14.10;55.93
27425;BME280;15244;49.088;11.886;2023-10-19T21:25:59;93620.19;;;14.10;55.91
27425;BME280;15244;49.088;11.886;2023-10-19T21:31:02;93634.66;;;14.11;56.11
27425;BME280;15244;49.088;11.886;2023-10-19T21:36:04;93632.38;;;14.09;56.05
27425;BME280;15244;49.088;11.886;2023-10-19T21:41:08;93626.72;;;14.13;55.98
27425;BME280;15244;49.088;11.886;2023-10-19T21:46:10;93619.28;;;14.13;55.91
27425;BME280;15244;49.088;11.886;2023-10-19T21:51:13;93615.31;;;14.14;55.75
27425;BME280;15244;49.088;11.886;2023-10-19T21:56:15;93601.91;;;14.16;56.52
27425;BME280;15244;49.088;11.886;2023-10-19T22:01:17;93593.69;;;14.16;56.04
27425;BME280;15244;49.088;11.886;2023-10-19T22:06:22;93569.47;;;14.15;56.33
27425;BME280;15244;49.088;11.886;2023-10-19T22:11:25;93574.53;;;14.16;56.07
27425;BME280;15244;49.088;11.886;2023-10-19T22:16:28;93556.84;;;14.17;56.05
27425;BME280;15244;49.088;11.886;2023-10-19T22:21:29;93538.41;;;14.18;56.24
27425;BME280;15244;49.088;11.886;2023-10-19T22:26:33;93533.72;;;14.18;56.05
27425;BME280;15244;49.088;11.886;2023-10-19T22:31:37;93522.44;;;14.16;56.02
27425;BME280;15244;49.088;11.886;2023-10-19T22:36:41;93522.91;;;14.15;56.09
27425;BME280;15244;49.088;11.886;2023-10-19T22:41:43;93515.59;;;14.12;56.29
27425;BME280;15244;49.088;11.886;2023-10-19T22:46:45;93521.41;;;14.14;56.21
27425;BME280;15244;49.088;11.886;2023-10-19T22:51:46;93509.69;;;14.13;56.15
27425;BME280;15244;49.088;11.886;2023-10-19T22:56:48;93501.16;;;14.11;56.31
27425;BME280;15244;49.088;11.886;2023-10-19T23:01:49;93477.69;;;14.10;56.15
27425;BME280;15244;49.088;11.886;2023-10-19T23:06:54;93447.56;;;14.10;56.10
27425;BME280;15244;49.088;11.886;2023-10-19T23:11:56;93453.50;;;14.08;56.14
27425;BME280;15244;49.088;11.886;2023-10-19T23:17:03;93454.13;;;14.03;56.18
27425;BME280;15244;49.088;11.886;2023-10-19T23:22:12;93436.16;;;14.02;56.52
27425;BME280;15244;49.088;11.886;2023-10-19T23:27:16;93438.63;;;14.00;56.06
27425;BME280;15244;49.088;11.886;2023-10-19T23:32:18;93425.38;;;13.99;56.40
27425;BME280;15244;49.088;11.886;2023-10-19T23:37:20;93417.63;;;13.97;55.97
27425;BME280;15244;49.088;11.886;2023-10-19T23:42:24;93441.69;;;13.93;56.01
27425;BME280;15244;49.088;11.886;2023-10-19T23:47:28;93420.69;;;13.90;56.00
27425;BME280;15244;49.088;11.886;2023-10-19T23:52:31;93410.66;;;13.87;55.84
27425;BME280;15244;49.088;11.886;2023-10-19T23:57:33;93404.09;;;13.84;55.83
